Troy Grove, IL (61372)

7:36 AM CST on February 06, 2016 (GMT -0600)
KILLAMOI3 | | Change Station
CLOSE
Current Station
Personal Weather Station
Location: La Moille, IL
Elevation: 0 ft
Nearby Weather Stations

Elev 0 ft 41.48 °N, 89.22 °W | Updated 32 seconds ago

Partly Cloudy
Partly Cloudy
24.4 °F
Feels Like 16 °F
N
7.0
Wind Variable Wind from West
Gusts 8.0 mph

Today
High -- | Low -- °F
--% Chance of Precip.
Yesterday
High -- | Low -- °F
Precip. -- in
Pressure 30.29 in
Visibility 5.0 miles
Clouds Scattered Clouds 3100 ft
Windchill 16 °F
Dew Point 22 °F
Humidity 92%
Rainfall 0.00 in
Snow Depth Not available.
7:03 AM 5:18 PM
Waning Crescent, 5% visible
METAR KVYS 061315Z AUTO 20006KT 5SM BR SCT031 M03/M04 A3029 RMK AO2 T10311040
Pressure 30.29 in
Visibility 5.0 miles
Clouds Scattered Clouds 3100 ft
Windchill 16 °F
Dew Point 22 °F
Humidity 92%
Rainfall 0.00 in
Snow Depth Not available.
7:03 AM 5:18 PM
Waning Crescent, 5% visible
METAR KVYS 061315Z AUTO 20006KT 5SM BR SCT031 M03/M04 A3029 RMK AO2 T10311040

10-Day Weather Forecast

Almanac

Astronomy

Feb. 06, 2016 Rise Set
Actual Time
Civil Twilight
Nautical Twilight
Astronomical Twilight
Moon
Length of Visible Light
Length of Day
Tomorrow will be .
, % of the Moon is Illuminated

Today's Extremes

State Highs State Lows

Community

WunderPhotos

Upload Photos

1,890,971 photos uploaded!

WunderBlog® & News

Nearby

Air Quality

  Air Quality AQ Index Pollutant
Not available.

Snow Depth

Station Depth Elevation

Earthquake Activity

City Distance Mag. Time & Date
Minimum magnitude displayed is 2.5.

Coastal Water Temperatures

Place Temperature

Stations

Nearby Weather Stations

Station Location Temp. Windchill Dew Point Humidity Wind Precip. Elev Updated Type
                   

Watches & Warnings

There are currently no watches in effect.